默认 日期 大小 文件数 浏览量 最新下载 xml
doo-磁力链接相关资源由用户搜索指令自动获取,结果来源于网络,本站不存储任何资料,亦不承担任何责任,请于24小时内删除,搜索到5370个磁力,显示前4000条数据,用时4ms。
    {"nfo.txt": 2417, "sample.mkv": 364709384, "scooby-doo.720p-girosz.mkv": 2623343667, "the torrent by.girosz supproted by.UPTorrent.txt": 0}
创建时间: 2019-05-10 21:13:59 大小:2.78 GB 文件数量:4 热度:3 最近下载:2021-06-17 16:25:58
    {"AgusiQ.gif": 1700262, "AgusiQ Zaprasza.url": 125, "AgusiQ-Torrents The Best.avi": 6836184, "Torrent downloaded from agusiq-torrents.pl upload jans12.txt": 4034, "Lego.Scooby.Doo.Blowou.Beach.Bash.2017.PL.DUB.720p.BDRip.XviD.AC3-KLiO.avi": 2166687744}
创建时间: 2019-05-11 02:12:55 大小:2.03 GB 文件数量:5 热度:6 最近下载:2024-10-11 22:53:01
    ... ExtraTorrent.com.txt": 353}, "Scooby-Doo! Mask of the Blue Falcon ...
创建时间: 2019-05-11 02:31:55 大小:927 MB 文件数量:9 热度:6 最近下载:2024-12-22 12:56:01
    {"KinoKopilka.tv - Best Movies BitTorrent Network.url": 154, "Scooby-Doo 3 - The Mystery Begins (www.kinokopilka.tv).avi": 1564491776, "Scooby-Doo 3 - The Mystery Begins (www.kinokopilka.tv).jpg": 71416}
创建时间: 2019-05-12 00:06:51 大小:1.46 GB 文件数量:3 热度:4 最近下载:2021-06-17 16:25:58
    ... (2000).mp4": 942012799, "Scooby Doo Arabian Nights (1994).avi": 1072367616 ... , "Scooby Doo Abracadabra Doo (2010).avi": 733317120, "Scooby Doo 2 Monsters Unleashed ... 2004).mp4": 1596067787, "LEGO Scooby Doo Haunted Hollywood (2016).mp4": 977477263 ...
创建时间: 2019-05-12 03:30:53 大小:12.35 GB 文件数量:15 热度:8 最近下载:2024-10-23 21:02:03
    {"01 - Grenade.flac": 78297123, "06 - Marry You.flac": 83545283, "09 - Count On Me.flac": 68422839, "04 - Runaway Baby.flac": 54579004, "05 - The Lazy Song.flac": 68685513, "03 - Our First Time.flac": 85605925, "10 - The Other Side.flac": 82142343, "08 - ...
创建时间: 2019-05-12 04:48:47 大小:725 MB 文件数量:10 热度:5 最近下载:2025-05-24 08:31:02
    ... jpg": 101866, "Best Daphne Sooby Doo Cosplay (4).jpg": 679634, " ... jpg": 127323, "Best Daphne Sooby Doo Cosplay (7).jpg": 293401, " ... jpg": 53335, "Best Daphne Sooby Doo Cosplay (10).jpg": 231549, ... "Best Daphne Sooby Doo Cosplay (11).jpg": 111018, " ...
创建时间: 2019-05-12 08:09:01 大小:3.45 MB 文件数量:22 热度:5 最近下载:2021-06-17 16:25:58
    ... .jpg": 142900}, "Scooby-Doo 076": {"scooby doo 076-02.jpg": 292590 ... "SD_128_DCP_0033.JPG": 603216}, "Scooby-Doo 129": {"scooby-doo 129 (dc-2008)(soundude ... "05. Scooby-Doo (Archie, 1995-1997)": {"Scooby-Doo 001": {"Scooby-Doo 01 (1995 ...
创建时间: 2019-05-13 22:14:32 大小:3.15 GB 文件数量:6038 热度:5 最近下载:2024-10-16 19:05:01
    {"Subs": {"2_Eng.srt": 77307, "3_Spa.srt": 69581}, "RARBG.avi": 1190542, "RARBG.txt": 30, "Scooby-Doo.2.Monsters.Unleashed.2004.BRRip.XviD.MP3-RARBG.avi": 1256260880, "Scooby-Doo.2.Monsters.Unleashed.2004.BRRip.XviD.MP3-RARBG.nfo": 3141}
创建时间: 2019-05-14 04:55:10 大小:1.17 GB 文件数量:6 热度:4 最近下载:2021-06-17 16:25:58
    ... .idx": 448285, "scooby-doo.and.the.curse.of.the ... ghouls.sub": 25626624, "scooby-doo.and.the.curse.of.the ... ": 86}, "Proof": {"scooby-doo.and.the.curse.of.the ... jpg": 65514}, "Sample": {"scooby-doo.and.the.curse.of.the ... .nfo": 4440, "scooby-doo.and.the.curse.of.the ...
创建时间: 2019-05-14 06:00:00 大小:562.05 MB 文件数量:9 热度:5 最近下载:2024-12-14 08:49:02
    {"7264374.2.jpg": 21509, "Scooby-Doo.I.Miecz.Samuraja.PL.DUB..avi": 733456384}
创建时间: 2019-05-14 09:06:09 大小:699.5 MB 文件数量:2 热度:4 最近下载:2021-06-17 16:25:58
    {"www.alt-torrent.com.txt": 400, "POR FAVOR!.....COMPARTAN!.txt": 111, "Scooby-Doo! And WWE - Curse of the Speed Demon (2016) 1080p LAT - ZeiZ.jpg": 87963, "Scooby-Doo! And WWE - Curse of the Speed Demon (2016) 1080p LAT - ZeiZ.mkv": 1878863914}
创建时间: 2019-05-14 21:35:26 大小:1.75 GB 文件数量:4 热度:6 最近下载:2024-09-26 04:44:02
    {"Read Me! - ¡Leerme! - CALLIXTUS.nfo": 69397, "Scooby Doo Franken Creepy 2014 BRRip 720p x264 AC3 [English_Latino] CALLIXTUS.mkv": 819324260}
创建时间: 2019-05-15 03:41:36 大小:781.43 MB 文件数量:2 热度:4 最近下载:2024-12-13 11:26:04
    {"- Kolla denna.jpg": 19840, "TORRENTSTART.NU.txt": 1357, "- www.torrentstart.nu 1.jpg": 54692, "- www.torrentstart.nu 2.jpg": 124061, "Scooby.Doo.And.the.Cyber.Chase.2001.Swedish.DVDrip.Royskatt.avi": 736436820}
创建时间: 2019-05-16 02:22:32 大小:702.51 MB 文件数量:5 热度:5 最近下载:2021-06-17 16:25:58
    {"www.TankaNer.com.nfo": 62, "Scooby.Doo.Och.Kleopatras.Förbannelse.2005.SWEDISH.DVDRip.XViD-andreaspetersson.avi": 739001446}
创建时间: 2019-05-16 06:04:54 大小:704.77 MB 文件数量:2 热度:3 最近下载:2021-06-17 16:25:58
    {"sample.avi": 7378944, "RARBG.com.txt": 34, "Scooby.Doo.Wrestlemania.Mystery.2014.UNRATED.HDRip.XviD-EVO.avi": 712837120, "Scooby.Doo.Wrestlemania.Mystery.2014.UNRATED.HDRip.XviD-EVO.nfo": 2148}
创建时间: 2019-05-16 13:29:54 大小:686.85 MB 文件数量:4 热度:5 最近下载:2021-06-17 16:25:58
    ... [szadek].avi": 183382016, "05.Scooby-Doo.1979.DVDRip.DubPL[szadek](bonus ...
创建时间: 2019-05-18 00:23:02 大小:873.12 MB 文件数量:5 热度:4 最近下载:2024-12-12 17:44:02
    {"Cover": {"disc 1.jpg": 1781472, "disc 2.jpg": 1009771, "cover 1.jpg": 4539634, "cover 2.jpg": 3427720}, "VIDEO_TS": {"VIDEO_TS.BUP": 12288, "VIDEO_TS.IFO": 12288, "VIDEO_TS.VOB": 3833856, "VTS_01_0.BUP": 71680, "VTS_01_0.IFO": 71680, "VTS_01_0.VOB": ...
创建时间: 2019-05-18 06:21:26 大小:3.48 GB 文件数量:14 热度:3 最近下载:2021-06-17 16:25:58
    {"Scooby Doo.xbus.avi": 317490174}
创建时间: 2019-05-18 11:33:00 大小:302.78 MB 文件数量:1 热度:4 最近下载:2024-11-27 22:26:02
    {"Scooby Doo Meets Batman.mp4": 770500355, "Scooby-Doo Meets Batman CD.jpg": 1256414, "Scooby-Doo Meets Batman Front Cover.jpg": 4941275}
创建时间: 2019-05-18 15:37:19 大小:740.72 MB 文件数量:3 热度:3 最近下载:2021-06-17 16:25:58